createdAt,value
2023-02-07T00:01:51.270Z,27.30
2023-02-07T00:06:55.555Z,27.30
2023-02-07T00:11:58.451Z,27.40
2023-02-07T00:17:01.387Z,27.50
2023-02-07T00:22:05.552Z,27.60
2023-02-07T00:27:08.654Z,27.70
2023-02-07T00:32:11.700Z,27.60
2023-02-07T00:37:15.949Z,27.60
2023-02-07T00:42:18.806Z,27.70
2023-02-07T00:47:21.766Z,27.70
2023-02-07T00:52:25.899Z,27.70
2023-02-07T00:57:28.711Z,27.80
2023-02-07T01:02:31.619Z,27.90
2023-02-07T01:07:36.404Z,27.90
2023-02-07T01:12:40.165Z,27.90
2023-02-07T01:17:43.024Z,28.00
2023-02-07T01:22:47.308Z,27.90
2023-02-07T01:27:50.158Z,27.90
2023-02-07T01:32:52.991Z,28.00
2023-02-07T01:37:58.358Z,28.20
2023-02-07T01:43:01.206Z,28.30
2023-02-07T01:48:07.741Z,28.40
2023-02-07T01:53:14.895Z,28.40
2023-02-07T01:58:18.391Z,28.40
2023-02-07T02:03:21.325Z,28.30
2023-02-07T02:08:25.865Z,28.30
2023-02-07T02:13:33.442Z,28.20
2023-02-07T02:19:05.684Z,28.30
2023-02-07T02:24:41.072Z,28.30
2023-02-07T02:30:26.054Z,28.60
2023-02-07T02:35:35.673Z,28.50
2023-02-07T02:40:45.656Z,28.50
2023-02-07T02:45:54.298Z,28.50
2023-02-07T02:50:59.258Z,28.40
2023-02-07T02:56:39.302Z,28.40
2023-02-07T03:01:53.417Z,28.40
2023-02-07T03:07:11.578Z,28.40
2023-02-07T03:12:20.768Z,28.50
2023-02-07T03:17:28.135Z,28.50
2023-02-07T03:22:33.890Z,28.40
2023-02-07T03:27:38.741Z,28.50
2023-02-07T03:32:44.966Z,28.60
2023-02-07T03:37:52.355Z,28.60
2023-02-07T03:43:00.612Z,28.50
2023-02-07T03:48:03.484Z,28.50
2023-02-07T03:53:07.847Z,28.40
2023-02-07T03:58:10.745Z,28.40
2023-02-07T04:03:13.625Z,28.40
2023-02-07T04:08:18.060Z,28.50
2023-02-07T04:13:20.920Z,28.50
2023-02-07T04:18:24.047Z,28.50
2023-02-07T04:23:28.229Z,28.50
2023-02-07T04:28:31.191Z,28.50
2023-02-07T04:33:34.090Z,28.50
2023-02-07T04:38:38.580Z,28.50
2023-02-07T04:43:41.516Z,28.40
2023-02-07T04:48:44.414Z,29.10
2023-02-07T04:53:48.648Z,28.70
2023-02-07T04:58:51.558Z,28.80
2023-02-07T05:03:54.512Z,29.30
2023-02-07T05:08:58.757Z,28.90
2023-02-07T05:14:01.688Z,28.90
2023-02-07T05:19:05.647Z,28.80
2023-02-07T05:24:10.067Z,28.60
2023-02-07T05:29:12.970Z,28.60
2023-02-07T05:34:15.852Z,28.70
2023-02-07T05:39:20.064Z,28.70
2023-02-07T05:44:22.982Z,28.60
2023-02-07T05:49:25.939Z,28.70
2023-02-07T05:54:30.190Z,28.60
2023-02-07T05:59:33.068Z,28.70
2023-02-07T06:04:36.159Z,28.70
2023-02-07T06:09:40.335Z,28.70
2023-02-07T06:14:43.267Z,28.80
2023-02-07T06:19:46.111Z,28.70
2023-02-07T06:24:50.265Z,28.90
2023-02-07T06:29:53.078Z,29.40
2023-02-07T06:34:55.940Z,28.70
2023-02-07T06:40:00.165Z,28.80
2023-02-07T06:45:03.171Z,28.70
2023-02-07T06:50:09.046Z,28.50
2023-02-07T06:55:13.754Z,28.50
2023-02-07T07:00:17.776Z,28.50
2023-02-07T07:05:20.712Z,28.70
2023-02-07T07:10:25.102Z,28.30
2023-02-07T07:15:28.596Z,28.30
2023-02-07T07:20:31.731Z,28.20
2023-02-07T07:25:36.114Z,28.10
2023-02-07T07:30:39.085Z,28.10
2023-02-07T07:35:42.332Z,28.10
2023-02-07T07:40:46.702Z,28.00
2023-02-07T07:45:53.704Z,28.00
2023-02-07T07:50:56.540Z,27.90
2023-02-07T07:56:00.701Z,28.00
2023-02-07T08:01:03.951Z,27.90
2023-02-07T08:06:07.951Z,28.00
2023-02-07T08:11:12.628Z,28.00
2023-02-07T08:16:15.620Z,28.00
2023-02-07T08:21:18.680Z,27.90
2023-02-07T08:26:22.967Z,28.00
2023-02-07T08:31:25.881Z,28.00
2023-02-07T08:36:28.852Z,28.00
2023-02-07T08:41:33.059Z,28.00
2023-02-07T08:46:35.969Z,27.80
2023-02-07T08:51:39.534Z,28.00
2023-02-07T08:56:43.730Z,28.10
2023-02-07T09:01:46.570Z,28.20
2023-02-07T09:06:49.477Z,28.30
2023-02-07T09:11:53.631Z,28.30
2023-02-07T09:16:56.582Z,28.30
2023-02-07T09:21:59.528Z,28.30
2023-02-07T09:27:03.772Z,28.20
2023-02-07T09:32:06.804Z,28.20
2023-02-07T09:37:09.660Z,28.30
2023-02-07T09:42:23.281Z,28.20
2023-02-07T09:47:27.358Z,28.30
2023-02-07T09:52:34.789Z,28.30
2023-02-07T09:57:46.815Z,28.30
2023-02-07T10:02:55.075Z,28.30
2023-02-07T10:07:58.463Z,28.40
2023-02-07T10:13:16.337Z,28.40
2023-02-07T10:18:30.259Z,28.50
2023-02-07T10:23:50.782Z,28.40
2023-02-07T10:29:11.398Z,28.60
2023-02-07T10:34:16.456Z,28.70
2023-02-07T10:39:26.561Z,28.80
2023-02-07T10:44:30.993Z,28.90
2023-02-07T10:49:38.265Z,29.00
2023-02-07T10:54:52.433Z,29.10
2023-02-07T11:00:07.324Z,29.20
2023-02-07T11:05:30.143Z,29.30
2023-02-07T11:10:36.528Z,29.50
2023-02-07T11:15:49.845Z,29.70
2023-02-07T11:20:56.091Z,29.70
2023-02-07T11:25:59.208Z,29.70
2023-02-07T11:31:07.311Z,29.70
2023-02-07T11:36:22.199Z,29.80
2023-02-07T11:41:27.504Z,30.00
2023-02-07T11:46:39.098Z,30.00
2023-02-07T11:51:42.054Z,30.00
2023-02-07T11:56:49.716Z,30.00
2023-02-07T12:01:57.322Z,30.00
2023-02-07T12:07:05.630Z,30.10
2023-02-07T12:12:16.685Z,30.20
2023-02-07T12:17:28.747Z,30.10
2023-02-07T12:22:41.866Z,30.10
2023-02-07T12:27:48.690Z,30.10
2023-02-07T12:33:01.568Z,30.20
2023-02-07T12:38:16.264Z,30.30
2023-02-07T12:43:25.368Z,30.40
2023-02-07T12:48:42.584Z,30.40
2023-02-07T12:53:58.654Z,30.40
2023-02-07T12:59:13.250Z,30.40
2023-02-07T13:04:48.539Z,30.50
2023-02-07T13:10:01.489Z,30.60
2023-02-07T13:15:16.002Z,30.70
2023-02-07T13:20:33.234Z,30.70
2023-02-07T13:25:41.457Z,30.80
2023-02-07T13:30:44.865Z,30.80
2023-02-07T13:35:49.694Z,30.90
2023-02-07T13:41:01.869Z,31.40
2023-02-07T13:46:19.354Z,30.80
2023-02-07T13:51:31.841Z,30.90
2023-02-07T13:56:54.771Z,30.90
2023-02-07T14:02:00.537Z,30.90
2023-02-07T14:07:11.919Z,31.00
2023-02-07T14:12:21.915Z,31.10
2023-02-07T14:17:59.065Z,31.20
2023-02-07T14:23:15.491Z,31.50
2023-02-07T14:28:36.336Z,31.40
2023-02-07T14:33:40.056Z,31.40
2023-02-07T14:38:46.223Z,31.40
2023-02-07T14:44:06.425Z,31.40
2023-02-07T14:49:16.567Z,31.50
2023-02-07T14:54:28.617Z,31.40
2023-02-07T14:59:37.036Z,31.50
2023-02-07T15:04:42.014Z,31.60
2023-02-07T15:09:46.928Z,31.50
2023-02-07T15:14:49.885Z,31.40
2023-02-07T15:19:56.148Z,31.50
2023-02-07T15:25:01.978Z,31.40
2023-02-07T15:30:08.361Z,31.60
2023-02-07T15:35:17.989Z,31.60
2023-02-07T15:40:26.622Z,31.60
2023-02-07T15:45:32.029Z,31.60
2023-02-07T15:50:35.858Z,31.60
2023-02-07T15:55:47.748Z,31.60
2023-02-07T16:00:52.550Z,31.60
2023-02-07T16:06:02.910Z,31.50
2023-02-07T16:11:22.302Z,31.60
2023-02-07T16:16:28.161Z,31.60
2023-02-07T16:21:31.134Z,31.70
2023-02-07T16:26:37.969Z,31.70
2023-02-07T16:31:40.876Z,31.80
2023-02-07T16:36:44.544Z,31.80
2023-02-07T16:41:50.759Z,31.60
2023-02-07T16:46:53.860Z,31.30
2023-02-07T16:51:57.087Z,30.80
2023-02-07T16:57:04.024Z,30.50
2023-02-07T17:02:14.762Z,30.20
2023-02-07T17:07:17.681Z,30.50
2023-02-07T17:12:21.975Z,29.80
2023-02-07T17:17:25.894Z,29.70
2023-02-07T17:22:28.724Z,29.40
2023-02-07T17:27:32.962Z,29.30
2023-02-07T17:32:35.925Z,29.20
2023-02-07T17:37:38.918Z,29.20
2023-02-07T17:42:43.171Z,29.30
2023-02-07T17:47:46.131Z,29.60
2023-02-07T17:52:48.972Z,28.80
2023-02-07T17:57:53.131Z,28.70
2023-02-07T18:02:56.227Z,28.60
2023-02-07T18:07:59.370Z,28.90
2023-02-07T18:13:03.560Z,28.30
2023-02-07T18:18:06.615Z,28.40
2023-02-07T18:23:13.323Z,28.40
2023-02-07T18:28:18.409Z,28.40
2023-02-07T18:33:21.277Z,29.00
2023-02-07T18:38:24.164Z,29.40
2023-02-07T18:43:28.526Z,29.60
2023-02-07T18:48:31.356Z,29.50
2023-02-07T18:53:34.656Z,29.40
2023-02-07T18:58:39.517Z,29.40
2023-02-07T19:03:42.450Z,29.20
2023-02-07T19:08:45.295Z,29.00
2023-02-07T19:13:50.875Z,28.90
2023-02-07T19:18:53.865Z,29.00
2023-02-07T19:23:58.469Z,28.90
2023-02-07T19:29:05.174Z,28.90
2023-02-07T19:34:08.269Z,28.90
2023-02-07T19:39:11.417Z,29.00
2023-02-07T19:44:16.330Z,28.80
2023-02-07T19:49:19.211Z,28.80
2023-02-07T19:54:22.067Z,28.40
2023-02-07T19:59:26.370Z,28.10
2023-02-07T20:04:29.419Z,28.30
2023-02-07T20:09:32.723Z,28.40
2023-02-07T20:14:37.033Z,28.30
2023-02-07T20:19:39.936Z,27.70
2023-02-07T20:24:42.825Z,28.10
2023-02-07T20:29:47.081Z,28.20
2023-02-07T20:34:50.048Z,28.30
2023-02-07T20:39:52.902Z,28.10
2023-02-07T20:44:58.936Z,28.30
2023-02-07T20:50:01.875Z,28.20
2023-02-07T20:55:05.173Z,28.20
2023-02-07T21:00:11.032Z,28.20
2023-02-07T21:05:13.935Z,28.20
2023-02-07T21:10:16.760Z,28.10
2023-02-07T21:15:21.140Z,27.60
2023-02-07T21:20:23.957Z,27.80
2023-02-07T21:25:27.009Z,28.10
2023-02-07T21:30:31.296Z,28.10
2023-02-07T21:35:34.602Z,28.20
2023-02-07T21:40:37.484Z,28.30
2023-02-07T21:45:41.738Z,28.30
2023-02-07T21:50:44.621Z,28.40
2023-02-07T21:55:47.541Z,28.40
2023-02-07T22:00:51.832Z,28.40
2023-02-07T22:05:54.788Z,28.10
2023-02-07T22:10:57.780Z,28.20
2023-02-07T22:16:02.185Z,28.40
2023-02-07T22:21:05.879Z,28.50
2023-02-07T22:26:09.479Z,28.50
2023-02-07T22:31:15.215Z,28.50
2023-02-07T22:36:20.090Z,28.40
2023-02-07T22:41:23.220Z,28.40
2023-02-07T22:46:27.526Z,27.80
2023-02-07T22:51:32.328Z,27.90
2023-02-07T22:56:37.633Z,28.00
2023-02-07T23:01:43.398Z,28.30
2023-02-07T23:06:46.992Z,28.50
2023-02-07T23:11:50.121Z,28.50
2023-02-07T23:16:54.332Z,28.40
2023-02-07T23:21:59.521Z,28.20
2023-02-07T23:27:02.567Z,27.70
2023-02-07T23:32:06.807Z,27.30
2023-02-07T23:37:09.598Z,27.20
2023-02-07T23:42:12.469Z,27.20
2023-02-07T23:47:16.689Z,27.00
2023-02-07T23:52:19.590Z,26.80
2023-02-07T23:57:22.406Z,26.70
